Time;durP1;ratioP1;P1;durP2;ratioP2;P2;SDS_P1;SDS_P2;PMS_P1;PMS_P2;Temp;Humidity;BMP_temperature;BMP_pressure;BME280_temperature;BME280_humidity;BME280_pressure;Samples;Min_cycle;Max_cycle;Signal;HPM_P1;HPM_P2
2022/04/17 00:00:13;;;;;;;;;;;;;;;;;;4969374;28;1978;-69
2022/04/17 00:02:39;;;;;;;;;;;;;;;;;;4969024;28;924;-69
2022/04/17 00:05:06;;;;;;;;;;;;;;;;;;5035683;28;1156;-69
2022/04/17 00:07:34;;;;;;;;;;;;;;;;;;4968719;28;1330;-70
2022/04/17 00:10:00;;;;;;;;;;;;;;;;;;4969239;28;945;-69
2022/04/17 00:12:27;;;;;;;;;;;;;;;;;;4969062;28;881;-70
2022/04/17 00:14:53;;;;;;;;;;;;;;;;;;4968777;28;1519;-69
2022/04/17 00:17:19;;;;;;;;;;;;;;;;;;5035464;28;1327;-68
2022/04/17 00:19:45;;;;;;;;;;;;;;;;;;5035487;28;1967;-69
2022/04/17 00:22:13;;;;;;;;;;;;;;;;;;4969192;28;835;-68
2022/04/17 00:24:40;;;;;;;;;;;;;;;;;;5035747;28;1199;-69
2022/04/17 00:27:06;;;;;;;;;;;;;;;;;;4968672;28;1310;-69
2022/04/17 00:29:32;;;;;;;;;;;;;;;;;;4968860;28;1088;-71
2022/04/17 00:31:59;;;;;;;;;;;;;;;;;;4968858;28;1080;-70
2022/04/17 00:34:26;;;;;;;;;;;;;;;;;;4968950;28;1100;-70
2022/04/17 00:36:52;;;;;;;;;;;;;;;;;;4968526;28;1316;-69
2022/04/17 00:39:18;;;;;;;;;;;;;;;;;;4969307;28;1968;-69
2022/04/17 00:41:47;;;;;;;;;;;;;;;;;;4968711;28;835;-69
2022/04/17 00:44:13;;;;;;;;;;;;;;;;;;4968499;28;1047;-69
2022/04/17 00:46:40;;;;;;;;;;;;;;;;;;4968406;28;1314;-69
2022/04/17 00:49:06;;;;;;;;;;;;;;;;;;4968686;28;962;-69
2022/04/17 00:51:33;;;;;;;;;;;;;;;;;;4968753;28;954;-69
2022/04/17 00:53:59;;;;;;;;;;;;;;;;;;4969097;28;1302;-69
2022/04/17 00:56:25;;;;;;;;;;;;;;;;;;4968539;28;1403;-70
2022/04/17 00:58:53;;;;;;;;;;;;;;;;;;4968874;28;933;-69
2022/04/17 01:01:19;;;;;;;;;;;;;;;;;;4968136;28;1923;-69
2022/04/17 01:03:45;;;;;;;;;;;;;;;;;;4968302;28;1072;-69
2022/04/17 01:06:11;;;;;;;;;;;;;;;;;;4968000;28;1276;-68
2022/04/17 01:08:41;;;;;;;;;;;;;;;;;;4968263;28;700;-68
2022/04/17 01:11:07;;;;;;;;;;;;;;;;;;4968382;28;773;-68
2022/04/17 01:13:33;;;;;;;;;;;;;;;;;;4968248;28;1130;-69
2022/04/17 01:16:01;;;;;;;;;;;;;;;;;;5034822;28;842;-69
2022/04/17 01:18:27;;;;;;;;;;;;;;;;;;4967249;28;1365;-69
2022/04/17 01:20:53;;;;;;;;;;;;;;;;;;5034351;28;1991;-70
2022/04/17 01:28:48;;;;;;;;;;;;;;;;;;4968632;28;837;-69
2022/04/17 01:31:14;;;;;;;;;;;;;;;;;;5034917;28;1296;-69
2022/04/17 01:33:40;;;;;;;;;;;;;;;;;;4968083;28;1069;-69
2022/04/17 01:36:07;;;;;;;;;;;;;;;;;;4968031;28;838;-71
2022/04/17 01:38:34;;;;;;;;;;;;;;;;;;5034460;28;1432;-69
2022/04/17 01:41:00;;;;;;;;;;;;;;;;;;4967635;28;1922;-69
2022/04/17 01:43:26;;;;;;;;;;;;;;;;;;5034963;28;1420;-69
2022/04/17 01:45:53;;;;;;;;;;;;;;;;;;4968015;28;874;-69
2022/04/17 01:48:19;;;;;;;;;;;;;;;;;;4967534;28;1391;-70
2022/04/17 01:50:45;;;;;;;;;;;;;;;;;;5037688;28;1371;-70
2022/04/17 01:53:11;;;;;;;;;;;;;;;;;;4971546;28;1071;-70
2022/04/17 01:55:39;;;;;;;;;;;;;;;;;;4971353;28;937;-69
2022/04/17 01:58:05;;;;;;;;;;;;;;;;;;4970762;28;1290;-70
2022/04/17 02:00:31;;;;;;;;;;;;;;;;;;4970838;28;1923;-70
2022/04/17 02:02:57;;;;;;;;;;;;;;;;;;4971129;28;1143;-68
2022/04/17 02:05:24;;;;;;;;;;;;;;;;;;4971078;28;728;-69
2022/04/17 02:07:50;;;;;;;;;;;;;;;;;;4970732;28;1338;-70
2022/04/17 02:10:19;;;;;;;;;;;;;;;;;;4971354;28;815;-70
2022/04/17 02:12:47;;;;;;;;;;;;;;;;;;4971350;28;1063;-69
2022/04/17 02:15:14;;;;;;;;;;;;;;;;;;5037616;28;1060;-70
2022/04/17 02:17:40;;;;;;;;;;;;;;;;;;4970108;28;1480;-70
2022/04/17 02:20:08;;;;;;;;;;;;;;;;;;4971041;28;1918;-70
2022/04/17 02:22:34;;;;;;;;;;;;;;;;;;4970700;28;864;-70
2022/04/17 02:25:00;;;;;;;;;;;;;;;;;;4970799;28;982;-70
2022/04/17 02:27:26;;;;;;;;;;;;;;;;;;4970418;28;1408;-70
2022/04/17 02:29:54;;;;;;;;;;;;;;;;;;4971062;28;794;-70
2022/04/17 02:32:20;;;;;;;;;;;;;;;;;;4970444;28;894;-70
2022/04/17 02:34:46;;;;;;;;;;;;;;;;;;4970426;28;1138;-70
2022/04/17 02:37:12;;;;;;;;;;;;;;;;;;5036817;28;1341;-69
2022/04/17 02:39:39;;;;;;;;;;;;;;;;;;4970334;28;1918;-70
2022/04/17 02:42:05;;;;;;;;;;;;;;;;;;4970374;28;968;-69
2022/04/17 02:44:31;;;;;;;;;;;;;;;;;;4970548;28;795;-70
2022/04/17 02:49:42;;;;;;;;;;;;;;;;;;4970889;28;1037;-69
2022/04/17 02:52:09;;;;;;;;;;;;;;;;;;5037477;28;1288;-69
2022/04/17 02:54:35;;;;;;;;;;;;;;;;;;4970547;28;1079;-69
2022/04/17 02:57:01;;;;;;;;;;;;;;;;;;4970155;28;1306;-69
2022/04/17 02:59:27;;;;;;;;;;;;;;;;;;4969246;28;1617;-69
2022/04/17 03:07:22;;;;;;;;;;;;;;;;;;4969295;28;1428;-69
2022/04/17 03:09:49;;;;;;;;;;;;;;;;;;4969332;28;1590;-68
2022/04/17 03:12:15;;;;;;;;;;;;;;;;;;4969374;28;1587;-68
2022/04/17 03:14:41;;;;;;;;;;;;;;;;;;4969989;28;884;-68
2022/04/17 03:17:07;;;;;;;;;;;;;;;;;;4968914;28;1611;-68
2022/04/17 03:19:34;;;;;;;;;;;;;;;;;;4970046;28;948;-68
2022/04/17 03:22:02;;;;;;;;;;;;;;;;;;4969633;28;1914;-68
2022/04/17 03:24:28;;;;;;;;;;;;;;;;;;4968777;28;1298;-68
2022/04/17 03:26:55;;;;;;;;;;;;;;;;;;4977510;28;2172;-68
2022/04/17 03:29:21;;;;;;;;;;;;;;;;;;5004837;28;1583;-68
2022/04/17 03:31:48;;;;;;;;;;;;;;;;;;5036205;28;1579;-68
2022/04/17 03:34:14;;;;;;;;;;;;;;;;;;4969535;28;1630;-68
2022/04/17 03:36:41;;;;;;;;;;;;;;;;;;4969155;28;1547;-69
2022/04/17 03:39:08;;;;;;;;;;;;;;;;;;4969542;28;1595;-69
2022/04/17 03:41:35;;;;;;;;;;;;;;;;;;4969274;28;1922;-70
2022/04/17 03:44:03;;;;;;;;;;;;;;;;;;4969072;28;1567;-69
2022/04/17 03:46:30;;;;;;;;;;;;;;;;;;4969292;28;1403;-69
2022/04/17 03:48:56;;;;;;;;;;;;;;;;;;5035664;28;1599;-69
2022/04/17 03:51:22;;;;;;;;;;;;;;;;;;4969155;28;1528;-69
2022/04/17 03:53:48;;;;;;;;;;;;;;;;;;4968432;28;1634;-69
2022/04/17 03:56:16;;;;;;;;;;;;;;;;;;4968965;28;1314;-68
2022/04/17 03:58:42;;;;;;;;;;;;;;;;;;5035781;28;916;-68
2022/04/17 04:01:08;;;;;;;;;;;;;;;;;;4969104;28;1919;-69
2022/04/17 04:03:34;;;;;;;;;;;;;;;;;;4968857;28;961;-69
2022/04/17 04:06:00;;;;;;;;;;;;;;;;;;5035608;28;1331;-69
2022/04/17 04:08:27;;;;;;;;;;;;;;;;;;4968875;28;1361;-69
2022/04/17 04:10:53;;;;;;;;;;;;;;;;;;4968822;28;1060;-69
2022/04/17 04:13:20;;;;;;;;;;;;;;;;;;4968901;28;1480;-69
2022/04/17 04:15:47;;;;;;;;;;;;;;;;;;4969057;28;1116;-69
2022/04/17 04:18:13;;;;;;;;;;;;;;;;;;4968749;28;1401;-69
2022/04/17 04:20:39;;;;;;;;;;;;;;;;;;4968604;28;1911;-69
2022/04/17 04:23:05;;;;;;;;;;;;;;;;;;4968999;28;930;-69
2022/04/17 04:25:31;;;;;;;;;;;;;;;;;;4968908;28;779;-70
2022/04/17 04:30:43;;;;;;;;;;;;;;;;;;4968651;28;1024;-68
2022/04/17 04:33:10;;;;;;;;;;;;;;;;;;4968739;28;874;-69
2022/04/17 04:35:36;;;;;;;;;;;;;;;;;;4968806;28;843;-68
2022/04/17 04:38:02;;;;;;;;;;;;;;;;;;5034486;28;1340;-69
2022/04/17 04:40:29;;;;;;;;;;;;;;;;;;4968528;28;1911;-69
2022/04/17 04:42:59;;;;;;;;;;;;;;;;;;4968609;28;843;-69
2022/04/17 04:49:29;;;;;;;;;;;;;;;;;;4952781;28;1329;-69
2022/04/17 04:51:06;;;;;;;;;;;;;;;;;;4968505;28;1004;-70
2022/04/17 04:53:32;;;;;;;;;;;;;;;;;;4968741;28;1120;-69
2022/04/17 04:56:00;;;;;;;;;;;;;;;;;;4968136;28;1107;-70
2022/04/17 04:58:26;;;;;;;;;;;;;;;;;;4968455;28;1764;-69
2022/04/17 05:00:52;;;;;;;;;;;;;;;;;;4968512;28;1922;-69
2022/04/17 05:03:19;;;;;;;;;;;;;;;;;;4968590;28;1136;-69
2022/04/17 05:05:46;;;;;;;;;;;;;;;;;;4968371;28;1072;-69
2022/04/17 05:08:12;;;;;;;;;;;;;;;;;;4967989;28;1376;-69
2022/04/17 05:10:38;;;;;;;;;;;;;;;;;;4968177;28;879;-69
2022/04/17 05:13:05;;;;;;;;;;;;;;;;;;4968749;28;901;-68
2022/04/17 05:15:31;;;;;;;;;;;;;;;;;;4968072;28;1254;-69
2022/04/17 05:17:57;;;;;;;;;;;;;;;;;;4968034;28;1317;-69
2022/04/17 05:20:26;;;;;;;;;;;;;;;;;;4968293;28;1131;-69
2022/04/17 05:22:56;;;;;;;;;;;;;;;;;;4968574;28;942;-69
2022/04/17 05:25:22;;;;;;;;;;;;;;;;;;4971070;28;799;-69
2022/04/17 05:27:49;;;;;;;;;;;;;;;;;;4971336;28;1382;-69
2022/04/17 05:30:15;;;;;;;;;;;;;;;;;;4971693;28;945;-69
2022/04/17 05:32:41;;;;;;;;;;;;;;;;;;4971406;28;1079;-69
2022/04/17 05:35:07;;;;;;;;;;;;;;;;;;4972130;28;854;-69
2022/04/17 05:37:35;;;;;;;;;;;;;;;;;;4971296;28;1332;-70
2022/04/17 05:40:01;;;;;;;;;;;;;;;;;;4971748;28;1059;-69
2022/04/17 05:42:27;;;;;;;;;;;;;;;;;;4971730;28;1918;-69
2022/04/17 05:44:53;;;;;;;;;;;;;;;;;;4971316;28;1138;-69
2022/04/17 05:47:20;;;;;;;;;;;;;;;;;;4971049;28;1314;-69
2022/04/17 05:49:46;;;;;;;;;;;;;;;;;;4971331;28;866;-69
2022/04/17 05:52:12;;;;;;;;;;;;;;;;;;4971167;28;1119;-70
2022/04/17 05:54:43;;;;;;;;;;;;;;;;;;4971258;28;890;-70
2022/04/17 05:57:09;;;;;;;;;;;;;;;;;;4970952;28;1314;-69
2022/04/17 05:59:36;;;;;;;;;;;;;;;;;;4971319;28;787;-70
2022/04/17 06:02:02;;;;;;;;;;;;;;;;;;4970971;28;1974;-70
2022/04/17 06:04:28;;;;;;;;;;;;;;;;;;4971342;28;1079;-70
2022/04/17 06:06:55;;;;;;;;;;;;;;;;;;4970805;28;1322;-69
2022/04/17 06:09:21;;;;;;;;;;;;;;;;;;4970588;28;1476;-70
2022/04/17 06:11:48;;;;;;;;;;;;;;;;;;4975629;28;1528;-69
2022/04/17 06:14:15;;;;;;;;;;;;;;;;;;4970842;28;866;-69
2022/04/17 06:16:41;;;;;;;;;;;;;;;;;;4970653;28;1368;-69
2022/04/17 06:19:09;;;;;;;;;;;;;;;;;;4971125;28;1096;-69
2022/04/17 06:21:35;;;;;;;;;;;;;;;;;;4970897;28;1910;-69
2022/04/17 06:24:01;;;;;;;;;;;;;;;;;;5037889;28;1246;-70
2022/04/17 06:26:27;;;;;;;;;;;;;;;;;;4970194;28;1336;-69
2022/04/17 06:28:55;;;;;;;;;;;;;;;;;;4970652;28;1071;-69
2022/04/17 06:31:21;;;;;;;;;;;;;;;;;;4970497;28;1068;-69
2022/04/17 06:33:47;;;;;;;;;;;;;;;;;;4970715;28;850;-69
2022/04/17 06:36:13;;;;;;;;;;;;;;;;;;4970023;28;1381;-68
2022/04/17 06:38:39;;;;;;;;;;;;;;;;;;5037421;28;874;-69
2022/04/17 06:41:06;;;;;;;;;;;;;;;;;;4970449;28;1915;-70
2022/04/17 06:43:32;;;;;;;;;;;;;;;;;;4970620;28;791;-69
2022/04/17 06:45:59;;;;;;;;;;;;;;;;;;4970432;28;1091;-69
2022/04/17 06:48:25;;;;;;;;;;;;;;;;;;4970035;28;1376;-69
2022/04/17 06:50:52;;;;;;;;;;;;;;;;;;4970393;28;787;-69
2022/04/17 06:53:18;;;;;;;;;;;;;;;;;;4970559;28;1115;-69
2022/04/17 06:55:46;;;;;;;;;;;;;;;;;;4970186;28;815;-68
2022/04/17 06:58:14;;;;;;;;;;;;;;;;;;4970308;28;1484;-68
2022/04/17 07:00:40;;;;;;;;;;;;;;;;;;4969920;28;869;-70
2022/04/17 07:03:07;;;;;;;;;;;;;;;;;;4970241;28;1976;-70
2022/04/17 07:05:34;;;;;;;;;;;;;;;;;;4970205;28;783;-69
2022/04/17 07:08:00;;;;;;;;;;;;;;;;;;4969860;28;1325;-69
2022/04/17 07:10:27;;;;;;;;;;;;;;;;;;4970224;28;1028;-70
2022/04/17 07:12:53;;;;;;;;;;;;;;;;;;4970365;28;858;-69
2022/04/17 07:15:20;;;;;;;;;;;;;;;;;;4970325;28;1080;-70
2022/04/17 07:17:46;;;;;;;;;;;;;;;;;;4969544;28;1419;-70
2022/04/17 07:20:15;;;;;;;;;;;;;;;;;;4970039;28;696;-70
2022/04/17 07:22:42;;;;;;;;;;;;;;;;;;4970068;28;1899;-70
2022/04/17 07:25:08;;;;;;;;;;;;;;;;;;4970160;28;1067;-70
2022/04/17 07:27:36;;;;;;;;;;;;;;;;;;5036105;28;1437;-70
2022/04/17 07:30:02;;;;;;;;;;;;;;;;;;4970094;28;1130;-70
2022/04/17 07:32:30;;;;;;;;;;;;;;;;;;4969845;28;1008;-69
2022/04/17 07:34:56;;;;;;;;;;;;;;;;;;4969701;28;1131;-69
2022/04/17 07:37:27;;;;;;;;;;;;;;;;;;4969232;28;1415;-69
2022/04/17 07:39:53;;;;;;;;;;;;;;;;;;4969821;28;802;-70
2022/04/17 07:42:21;;;;;;;;;;;;;;;;;;4969526;28;1920;-69
2022/04/17 07:44:47;;;;;;;;;;;;;;;;;;4969962;28;1072;-69
2022/04/17 07:47:13;;;;;;;;;;;;;;;;;;4968568;28;1317;-69
2022/04/17 07:49:39;;;;;;;;;;;;;;;;;;4969653;28;886;-70
2022/04/17 07:52:06;;;;;;;;;;;;;;;;;;4969396;28;1067;-69
2022/04/17 07:54:33;;;;;;;;;;;;;;;;;;4969299;28;787;-68
2022/04/17 07:57:00;;;;;;;;;;;;;;;;;;4969137;28;1337;-69
2022/04/17 07:59:26;;;;;;;;;;;;;;;;;;4969525;28;1092;-69
2022/04/17 08:02:01;;;;;;;;;;;;;;;;;;4969276;28;1978;-68
2022/04/17 08:04:27;;;;;;;;;;;;;;;;;;4969432;28;1142;-69
2022/04/17 08:06:53;;;;;;;;;;;;;;;;;;4969185;28;1319;-69
2022/04/17 08:09:20;;;;;;;;;;;;;;;;;;4969323;28;1103;-69
2022/04/17 08:11:51;;;;;;;;;;;;;;;;;;4969100;28;922;-69
2022/04/17 08:14:17;;;;;;;;;;;;;;;;;;4968870;28;1479;-70
2022/04/17 08:16:44;;;;;;;;;;;;;;;;;;5035346;28;1448;-69
2022/04/17 08:19:10;;;;;;;;;;;;;;;;;;4969022;28;957;-69
2022/04/17 08:21:36;;;;;;;;;;;;;;;;;;4968786;28;1914;-68
2022/04/17 08:24:03;;;;;;;;;;;;;;;;;;4969052;28;1119;-70
2022/04/17 08:26:29;;;;;;;;;;;;;;;;;;4968906;28;1421;-68
2022/04/17 08:28:57;;;;;;;;;;;;;;;;;;4968987;28;977;-69
2022/04/17 08:31:23;;;;;;;;;;;;;;;;;;4969113;28;676;-70
2022/04/17 08:33:49;;;;;;;;;;;;;;;;;;4968904;28;1072;-69
2022/04/17 08:36:15;;;;;;;;;;;;;;;;;;4968458;28;1388;-70
2022/04/17 08:38:42;;;;;;;;;;;;;;;;;;4968906;28;961;-69
2022/04/17 08:41:09;;;;;;;;;;;;;;;;;;4969162;28;1123;-70
2022/04/17 08:43:35;;;;;;;;;;;;;;;;;;4969020;28;1919;-70
2022/04/17 08:46:03;;;;;;;;;;;;;;;;;;4968626;28;957;-70
2022/04/17 08:48:29;;;;;;;;;;;;;;;;;;4968339;28;1305;-70
2022/04/17 08:50:55;;;;;;;;;;;;;;;;;;5016909;22;3508;-73
2022/04/17 08:53:21;;;;;;;;;;;;;;;;;;5030663;28;1157;-72
2022/04/17 08:55:48;;;;;;;;;;;;;;;;;;5049516;28;1067;-71
2022/04/17 08:58:14;;;;;;;;;;;;;;;;;;5051457;28;961;-70
2022/04/17 09:00:40;;;;;;;;;;;;;;;;;;5046618;28;1404;-69
2022/04/17 09:03:09;;;;;;;;;;;;;;;;;;5034397;28;1973;-70
2022/04/17 09:05:36;;;;;;;;;;;;;;;;;;5016326;28;1035;-71
2022/04/17 09:08:11;;;;;;;;;;;;;;;;;;5034672;28;1227;-72
2022/04/17 09:10:37;;;;;;;;;;;;;;;;;;5033073;28;1292;-70
2022/04/17 09:13:04;;;;;;;;;;;;;;;;;;5033437;28;1980;-69
2022/04/17 09:15:31;;;;;;;;;;;;;;;;;;5034423;28;1253;-70
2022/04/17 09:17:57;;;;;;;;;;;;;;;;;;5033200;28;1952;-73
2022/04/17 09:20:26;;;;;;;;;;;;;;;;;;5033891;28;1300;-70
2022/04/17 09:22:52;;;;;;;;;;;;;;;;;;5034184;28;1914;-69
2022/04/17 09:25:22;;;;;;;;;;;;;;;;;;5033875;28;782;-70
2022/04/17 09:27:55;;;;;;;;;;;;;;;;;;5032489;28;1766;-70
2022/04/17 09:30:25;;;;;;;;;;;;;;;;;;5025216;28;1493;-70
2022/04/17 09:32:51;;;;;;;;;;;;;;;;;;5033856;28;1193;-70
2022/04/17 09:35:18;;;;;;;;;;;;;;;;;;5034259;28;1071;-70
2022/04/17 09:37:45;;;;;;;;;;;;;;;;;;5033903;28;1048;-72
2022/04/17 09:40:12;;;;;;;;;;;;;;;;;;5034228;28;1363;-71
2022/04/17 09:42:39;;;;;;;;;;;;;;;;;;5033800;28;1973;-70
2022/04/17 09:45:07;;;;;;;;;;;;;;;;;;5034068;28;1117;-72
2022/04/17 09:47:33;;;;;;;;;;;;;;;;;;5033666;28;1307;-71
2022/04/17 09:50:00;;;;;;;;;;;;;;;;;;5033506;28;1312;-69
2022/04/17 09:52:28;;;;;;;;;;;;;;;;;;5033653;28;1985;-71
2022/04/17 09:54:56;;;;;;;;;;;;;;;;;;5033672;28;844;-71
2022/04/17 09:57:30;;;;;;;;;;;;;;;;;;5032134;28;1163;-70
2022/04/17 09:59:56;;;;;;;;;;;;;;;;;;5033692;28;1368;-70
2022/04/17 10:02:23;;;;;;;;;;;;;;;;;;5033546;28;833;-70
2022/04/17 10:04:49;;;;;;;;;;;;;;;;;;5033680;28;937;-71
2022/04/17 10:07:15;;;;;;;;;;;;;;;;;;5033105;28;894;-69
2022/04/17 10:09:43;;;;;;;;;;;;;;;;;;5026372;28;1435;-71
2022/04/17 10:12:14;;;;;;;;;;;;;;;;;;5033303;28;1907;-69
2022/04/17 10:14:40;;;;;;;;;;;;;;;;;;5015682;28;1160;-70
2022/04/17 10:17:07;;;;;;;;;;;;;;;;;;5015417;28;1251;-70
2022/04/17 10:19:33;;;;;;;;;;;;;;;;;;5033342;28;929;-71
2022/04/17 10:22:00;;;;;;;;;;;;;;;;;;5033184;28;1322;-70
2022/04/17 10:24:26;;;;;;;;;;;;;;;;;;5033179;28;949;-71
2022/04/17 10:26:53;;;;;;;;;;;;;;;;;;5032710;28;1060;-70
2022/04/17 10:29:22;;;;;;;;;;;;;;;;;;5033140;28;1256;-70
2022/04/17 10:31:53;;;;;;;;;;;;;;;;;;5032985;28;1257;-70
2022/04/17 10:34:24;;;;;;;;;;;;;;;;;;5033189;28;1981;-72
2022/04/17 10:36:54;;;;;;;;;;;;;;;;;;5032584;28;1104;-70
2022/04/17 10:39:21;;;;;;;;;;;;;;;;;;5032883;28;941;-71
2022/04/17 10:41:47;;;;;;;;;;;;;;;;;;5032438;28;1365;-71
2022/04/17 10:44:14;;;;;;;;;;;;;;;;;;5032725;28;1120;-71
2022/04/17 10:46:49;;;;;;;;;;;;;;;;;;5032702;28;875;-70
2022/04/17 10:49:16;;;;;;;;;;;;;;;;;;5032887;28;792;-71
2022/04/17 10:51:51;;;;;;;;;;;;;;;;;;5032418;28;1375;-70
2022/04/17 10:54:17;;;;;;;;;;;;;;;;;;5032572;28;1976;-71
2022/04/17 10:56:57;;;;;;;;;;;;;;;;;;5032386;28;949;-70
2022/04/17 10:59:24;;;;;;;;;;;;;;;;;;5032313;28;1112;-70
2022/04/17 11:01:52;;;;;;;;;;;;;;;;;;5032206;28;1575;-70
2022/04/17 11:04:19;;;;;;;;;;;;;;;;;;5032423;28;755;-70
2022/04/17 11:06:45;;;;;;;;;;;;;;;;;;5032092;28;1151;-70
2022/04/17 11:09:12;;;;;;;;;;;;;;;;;;5032594;28;868;-70
2022/04/17 11:11:39;;;;;;;;;;;;;;;;;;5014430;28;1325;-70
2022/04/17 11:14:05;;;;;;;;;;;;;;;;;;5032493;28;1915;-72
2022/04/17 11:16:37;;;;;;;;;;;;;;;;;;5031837;28;1877;-70
2022/04/17 11:19:06;;;;;;;;;;;;;;;;;;5032102;28;1064;-70
2022/04/17 11:21:36;;;;;;;;;;;;;;;;;;5030995;28;1403;-69
2022/04/17 11:24:03;;;;;;;;;;;;;;;;;;5032057;28;1083;-70
2022/04/17 11:26:44;;;;;;;;;;;;;;;;;;5031709;28;906;-70
2022/04/17 11:29:10;;;;;;;;;;;;;;;;;;5019316;28;1149;-70
2022/04/17 11:31:36;;;;;;;;;;;;;;;;;;5031588;28;1294;-71
2022/04/17 11:34:02;;;;;;;;;;;;;;;;;;5031700;28;1973;-71
2022/04/17 11:36:30;;;;;;;;;;;;;;;;;;5031341;28;1076;-70
2022/04/17 11:38:56;;;;;;;;;;;;;;;;;;5032049;28;1064;-70
2022/04/17 11:41:24;;;;;;;;;;;;;;;;;;5014069;28;1322;-70
2022/04/17 11:44:01;;;;;;;;;;;;;;;;;;5088887;27;1446;-71
2022/04/17 11:46:28;;;;;;;;;;;;;;;;;;5088002;28;849;-71
2022/04/17 11:48:54;;;;;;;;;;;;;;;;;;5088690;28;1067;-71
2022/04/17 11:51:21;;;;;;;;;;;;;;;;;;5088150;28;1291;-71
2022/04/17 11:53:47;;;;;;;;;;;;;;;;;;5088244;28;838;-71
2022/04/17 11:56:13;;;;;;;;;;;;;;;;;;5087802;28;1091;-72
2022/04/17 11:58:39;;;;;;;;;;;;;;;;;;5088039;28;898;-71
2022/04/17 12:01:08;;;;;;;;;;;;;;;;;;5088008;28;1411;-72
2022/04/17 12:03:35;;;;;;;;;;;;;;;;;;5087885;28;1910;-72
2022/04/17 12:06:03;;;;;;;;;;;;;;;;;;5088122;28;929;-70
2022/04/17 12:08:32;;;;;;;;;;;;;;;;;;5087598;28;1054;-70
2022/04/17 12:10:58;;;;;;;;;;;;;;;;;;5070585;28;1460;-70
2022/04/17 12:13:24;;;;;;;;;;;;;;;;;;5067603;28;786;-70
2022/04/17 12:15:58;;;;;;;;;;;;;;;;;;5067374;28;1134;-70
2022/04/17 12:18:26;;;;;;;;;;;;;;;;;;5067147;28;896;-70
2022/04/17 12:20:56;;;;;;;;;;;;;;;;;;5067265;28;1339;-70
2022/04/17 12:23:22;;;;;;;;;;;;;;;;;;5067383;28;1914;-73
2022/04/17 12:25:49;;;;;;;;;;;;;;;;;;5067643;28;719;-69
2022/04/17 12:28:15;;;;;;;;;;;;;;;;;;5066970;28;1206;-70
2022/04/17 12:30:42;;;;;;;;;;;;;;;;;;5067033;28;1321;-70
2022/04/17 12:33:20;;;;;;;;;;;;;;;;;;5067044;28;767;-68
2022/04/17 12:35:47;;;;;;;;;;;;;;;;;;5067293;28;1040;-70
2022/04/17 12:38:13;;;;;;;;;;;;;;;;;;5066666;28;1962;-70
2022/04/17 12:40:42;;;;;;;;;;;;;;;;;;5066047;28;1635;-69
2022/04/17 12:43:15;;;;;;;;;;;;;;;;;;5099831;28;1903;-70
2022/04/17 12:45:51;;;;;;;;;;;;;;;;;;5107375;28;1111;-72
2022/04/17 12:48:23;;;;;;;;;;;;;;;;;;5107338;28;790;-72
2022/04/17 12:50:56;;;;;;;;;;;;;;;;;;5107087;28;1402;-71
2022/04/17 12:53:22;;;;;;;;;;;;;;;;;;5104934;28;1138;-70
2022/04/17 12:55:48;;;;;;;;;;;;;;;;;;5093622;28;1003;-70
2022/04/17 12:58:15;;;;;;;;;;;;;;;;;;5093187;28;1974;-70
2022/04/17 13:00:41;;;;;;;;;;;;;;;;;;5093556;28;1336;-69
2022/04/17 13:03:11;;;;;;;;;;;;;;;;;;5093875;28;1909;-69
2022/04/17 13:05:37;;;;;;;;;;;;;;;;;;5093522;28;1142;-70
2022/04/17 13:08:06;;;;;;;;;;;;;;;;;;5093046;28;1099;-69
2022/04/17 13:10:32;;;;;;;;;;;;;;;;;;5093489;28;1314;-69
2022/04/17 13:12:58;;;;;;;;;;;;;;;;;;5093443;28;1058;-69
2022/04/17 13:15:29;;;;;;;;;;;;;;;;;;5093418;28;881;-70
2022/04/17 13:17:55;;;;;;;;;;;;;;;;;;5075402;28;1490;-72
2022/04/17 13:20:22;;;;;;;;;;;;;;;;;;5093125;28;1414;-70
2022/04/17 13:22:48;;;;;;;;;;;;;;;;;;5093135;28;1914;-71
2022/04/17 13:25:16;;;;;;;;;;;;;;;;;;5092919;28;1051;-71
2022/04/17 13:27:42;;;;;;;;;;;;;;;;;;5092811;28;944;-71
2022/04/17 13:30:09;;;;;;;;;;;;;;;;;;5093145;28;1392;-71
2022/04/17 13:32:35;;;;;;;;;;;;;;;;;;5092815;28;1071;-71
2022/04/17 13:35:01;;;;;;;;;;;;;;;;;;5093460;28;1008;-71
2022/04/17 13:40:12;;;;;;;;;;;;;;;;;;5093144;28;1336;-71
2022/04/17 13:42:39;;;;;;;;;;;;;;;;;;5092370;28;1913;-71
2022/04/17 13:45:07;;;;;;;;;;;;;;;;;;5092885;28;761;-72
2022/04/17 13:47:33;;;;;;;;;;;;;;;;;;5092620;28;775;-71
2022/04/17 13:49:59;;;;;;;;;;;;;;;;;;5092911;28;1306;-71
2022/04/17 13:52:26;;;;;;;;;;;;;;;;;;5092901;28;960;-71
2022/04/17 13:54:53;;;;;;;;;;;;;;;;;;5092450;28;1079;-71
2022/04/17 13:57:19;;;;;;;;;;;;;;;;;;5092302;28;834;-71
2022/04/17 13:59:47;;;;;;;;;;;;;;;;;;5092664;28;1319;-71
2022/04/17 14:02:13;;;;;;;;;;;;;;;;;;5092336;28;1918;-71
2022/04/17 14:04:40;;;;;;;;;;;;;;;;;;5092327;28;1008;-72
2022/04/17 14:07:08;;;;;;;;;;;;;;;;;;5091109;28;1130;-72
2022/04/17 14:09:34;;;;;;;;;;;;;;;;;;5092254;28;964;-71
2022/04/17 14:12:00;;;;;;;;;;;;;;;;;;5074539;28;1526;-71
2022/04/17 14:14:27;;;;;;;;;;;;;;;;;;5071943;28;1071;-71
2022/04/17 14:16:54;;;;;;;;;;;;;;;;;;5071462;28;1052;-71
2022/04/17 14:19:21;;;;;;;;;;;;;;;;;;5071570;28;1126;-71
2022/04/17 14:21:48;;;;;;;;;;;;;;;;;;5071603;28;1318;-71
2022/04/17 14:24:14;;;;;;;;;;;;;;;;;;5071547;28;1976;-73
2022/04/17 14:26:41;;;;;;;;;;;;;;;;;;5071339;28;786;-70
2022/04/17 14:29:07;;;;;;;;;;;;;;;;;;5071892;28;922;-71
2022/04/17 14:31:33;;;;;;;;;;;;;;;;;;5071231;28;1328;-71
2022/04/17 14:34:01;;;;;;;;;;;;;;;;;;5071507;28;1126;-71
2022/04/17 14:36:27;;;;;;;;;;;;;;;;;;5078953;28;2021;-72
2022/04/17 14:38:55;;;;;;;;;;;;;;;;;;5087174;28;1691;-72
2022/04/17 14:41:21;;;;;;;;;;;;;;;;;;5091272;28;1371;-73
2022/04/17 14:43:47;;;;;;;;;;;;;;;;;;5091406;28;1910;-71
2022/04/17 14:46:13;;;;;;;;;;;;;;;;;;5091161;28;1360;-71
2022/04/17 14:48:39;;;;;;;;;;;;;;;;;;5091480;28;1075;-71
2022/04/17 14:51:07;;;;;;;;;;;;;;;;;;5098412;22;4077;-71
2022/04/17 14:53:33;;;;;;;;;;;;;;;;;;5067861;28;2049;-71
2022/04/17 14:56:00;;;;;;;;;;;;;;;;;;5062205;28;1154;-71
2022/04/17 14:58:26;;;;;;;;;;;;;;;;;;5070652;28;1119;-72
2022/04/17 15:00:52;;;;;;;;;;;;;;;;;;5070798;28;1415;-71
2022/04/17 15:03:19;;;;;;;;;;;;;;;;;;5070637;28;1902;-72
2022/04/17 15:05:45;;;;;;;;;;;;;;;;;;5070796;28;917;-72
2022/04/17 15:08:12;;;;;;;;;;;;;;;;;;5070265;28;1538;-74
2022/04/17 15:10:39;;;;;;;;;;;;;;;;;;5069889;28;1791;-71
2022/04/17 15:13:06;;;;;;;;;;;;;;;;;;5070470;28;1348;-71
2022/04/17 15:15:32;;;;;;;;;;;;;;;;;;5051628;28;1633;-70
2022/04/17 15:17:58;;;;;;;;;;;;;;;;;;5069933;28;1562;-72
2022/04/17 15:20:24;;;;;;;;;;;;;;;;;;5080133;28;1593;-72
2022/04/17 15:22:50;;;;;;;;;;;;;;;;;;5070558;28;1985;-72
2022/04/17 15:25:18;;;;;;;;;;;;;;;;;;5070167;28;1558;-72
2022/04/17 15:27:44;;;;;;;;;;;;;;;;;;5069345;28;1558;-72
2022/04/17 15:30:11;;;;;;;;;;;;;;;;;;5069044;28;1923;-73
2022/04/17 15:32:37;;;;;;;;;;;;;;;;;;5043023;28;1528;-74
2022/04/17 15:35:03;;;;;;;;;;;;;;;;;;5065385;28;1169;-74
2022/04/17 15:37:30;;;;;;;;;;;;;;;;;;5073924;28;1342;-71
2022/04/17 15:39:56;;;;;;;;;;;;;;;;;;5070018;28;1071;-73
2022/04/17 15:42:23;;;;;;;;;;;;;;;;;;5069934;28;2439;-73
2022/04/17 15:50:17;;;;;;;;;;;;;;;;;;5069953;28;981;-72
2022/04/17 15:52:43;;;;;;;;;;;;;;;;;;5068570;28;1488;-72
2022/04/17 15:55:09;;;;;;;;;;;;;;;;;;5069307;28;1619;-73
2022/04/17 15:57:37;;;;;;;;;;;;;;;;;;5069516;28;874;-72
2022/04/17 16:00:04;;;;;;;;;;;;;;;;;;5070343;28;965;-72
2022/04/17 16:02:40;;;;;;;;;;;;;;;;;;5069173;28;1484;-76
2022/04/17 16:05:07;;;;;;;;;;;;;;;;;;5069643;28;1918;-73
2022/04/17 16:07:34;;;;;;;;;;;;;;;;;;5069818;28;846;-74
2022/04/17 16:10:00;;;;;;;;;;;;;;;;;;5069465;28;1667;-75
2022/04/17 16:12:27;;;;;;;;;;;;;;;;;;5069879;28;1321;-74
2022/04/17 16:14:55;;;;;;;;;;;;;;;;;;5069055;28;1606;-71
2022/04/17 16:17:21;;;;;;;;;;;;;;;;;;5069327;28;1590;-74
2022/04/17 16:19:49;;;;;;;;;;;;;;;;;;5069877;28;1476;-71
2022/04/17 16:22:15;;;;;;;;;;;;;;;;;;5069720;28;1634;-72
2022/04/17 16:24:41;;;;;;;;;;;;;;;;;;5052129;28;1985;-72
2022/04/17 16:27:07;;;;;;;;;;;;;;;;;;5069291;28;1578;-72
2022/04/17 16:29:33;;;;;;;;;;;;;;;;;;5072018;28;1578;-72
2022/04/17 16:32:01;;;;;;;;;;;;;;;;;;5073652;28;1297;-72
2022/04/17 16:34:27;;;;;;;;;;;;;;;;;;5073538;28;1467;-72
2022/04/17 16:36:53;;;;;;;;;;;;;;;;;;5073108;28;985;-72
2022/04/17 16:39:19;;;;;;;;;;;;;;;;;;5073176;28;1637;-72
2022/04/17 16:41:46;;;;;;;;;;;;;;;;;;5072304;28;1575;-72
2022/04/17 16:44:12;;;;;;;;;;;;;;;;;;5072127;28;1910;-72
2022/04/17 16:46:38;;;;;;;;;;;;;;;;;;5065759;28;1555;-72
2022/04/17 16:49:06;;;;;;;;;;;;;;;;;;5069803;28;1345;-72
2022/04/17 16:51:32;;;;;;;;;;;;;;;;;;5070190;28;1661;-72
2022/04/17 16:53:58;;;;;;;;;;;;;;;;;;5070390;28;1561;-73
2022/04/17 16:56:24;;;;;;;;;;;;;;;;;;5051868;28;1630;-72
2022/04/17 17:01:35;;;;;;;;;;;;;;;;;;5069560;28;1461;-73
2022/04/17 17:04:01;;;;;;;;;;;;;;;;;;5051367;28;1946;-72
2022/04/17 17:06:28;;;;;;;;;;;;;;;;;;5068713;28;1551;-72
2022/04/17 17:08:54;;;;;;;;;;;;;;;;;;5069700;28;1551;-71
2022/04/17 17:11:21;;;;;;;;;;;;;;;;;;5069150;28;1562;-73
2022/04/17 17:13:47;;;;;;;;;;;;;;;;;;5069343;28;1427;-72
2022/04/17 17:16:14;;;;;;;;;;;;;;;;;;5068803;28;1562;-70
2022/04/17 17:18:40;;;;;;;;;;;;;;;;;;5070722;28;1019;-73
2022/04/17 17:21:06;;;;;;;;;;;;;;;;;;5070419;28;1629;-73
2022/04/17 17:23:34;;;;;;;;;;;;;;;;;;5070437;28;1918;-73
2022/04/17 17:26:01;;;;;;;;;;;;;;;;;;5052224;28;1555;-72
2022/04/17 17:28:27;;;;;;;;;;;;;;;;;;5069675;28;1538;-72
2022/04/17 17:30:53;;;;;;;;;;;;;;;;;;5069701;28;1455;-74
2022/04/17 17:33:19;;;;;;;;;;;;;;;;;;5070106;28;1613;-73
2022/04/17 17:35:46;;;;;;;;;;;;;;;;;;5069662;28;1587;-71